Latest Weather Observations for Minlaton Airport

IDS60801

Issued at 11:31 am CDT Thursday 2 April 2015 (issued every 30 minutes, with the page automatically refreshed every 10 minutes)

About weather observations | Map of weather stations | Latest weather observations for SA | Other Formats
Station Details ID: 022031 Name: MINLATON AERO Lat: -34.75 Lon: 137.53 Height: 32.0 m
Data from the previous 72 hours. | See also: Recent months at Minlaton Airport
Date/Time
CDT
Temp
°C
App
Temp
°C
Dew
Point
Rel
Hum
%
Delta-T
°C
Wind Press
QNH
hPa
Press
MSL
hPa
Rain
since 9 am
mm
Dir
 
Spd
km/h
Gust
km/h
Spd
kts
Gust
kts
02/11:30am 17.9 10.5 6.7 48 5.5 ESE 35 44 19 24 1025.1 1025.1 0.0
02/11:24am 17.5 10.6 7.3 51 5.1 ESE 33 44 18 24 1025.0 1025.0 0.0
02/11:04am 17.9 9.9 5.5 44 6.0 ESE 37 44 20 24 1025.0 1025.0 0.0
02/11:00am 18.8 11.5 5.6 42 6.5 ESE 33 43 18 23 1025.1 1025.1 0.0
02/10:30am 18.2 10.4 4.7 41 6.4 ESE 35 48 19 26 1025.1 1025.1 0.0
02/10:00am 17.7 10.0 5.3 44 6.0 SE 35 46 19 25 1025.1 1025.1 0.0
02/09:30am 16.2 8.5 5.5 49 5.1 ESE 35 48 19 26 1024.9 1024.9 0.0
02/09:00am 16.3 8.9 6.7 53 4.7 SE 35 50 19 27 1024.5 1024.5 0.0
02/08:46am 16.2 9.9 7.4 56 4.4 SE 30 46 16 25 1024.3 1024.3 0.0
02/08:30am 14.7 10.2 8.4 66 3.2 SE 22 28 12 15 1024.3 1024.3 0.0
02/08:00am 11.5 7.1 6.6 72 2.3 SSE 19 20 10 11 1024.0 1024.0 0.0
02/07:30am 11.8 7.3 6.1 68 2.7 SSE 19 20 10 11 1023.8 1023.8 0.0
02/07:00am 13.3 7.5 6.4 63 3.3 SE 26 32 14 17 1023.2 1023.2 0.0
02/06:30am 13.5 7.5 7.1 65 3.1 SE 28 35 15 19 1022.8 1022.8 0.0
02/06:00am 12.6 7.7 7.1 69 2.6 SSE 22 28 12 15 1022.3 1022.3 0.0
02/05:30am 13.2 8.1 7.6 69 2.7 SSE 24 30 13 16 1022.1 1022.1 0.0
02/05:00am 13.1 8.8 7.8 70 2.6 SSE 20 26 11 14 1021.5 1021.5 0.0
02/04:30am 13.6 8.5 7.8 68 2.9 SSE 24 28 13 15 1021.4 1021.4 0.0
02/04:00am 13.8 8.9 8.4 70 2.7 SSE 24 28 13 15 1021.3 1021.3 0.0
02/03:30am 14.9 9.5 8.2 64 3.4 SSE 26 33 14 18 1021.3 1021.3 0.0
02/03:00am 14.9 9.5 8.2 64 3.4 SSE 26 32 14 17 1021.4 1021.4 0.0
02/02:30am 14.8 8.2 7.8 63 3.5 SSE 32 39 17 21 1021.5 1021.5 0.0
02/02:00am 15.0 9.6 9.4 69 2.9 SSE 28 39 15 21 1021.4 1021.4 0.0
02/01:30am 15.0 9.2 9.6 70 2.8 SSE 30 39 16 21 1021.1 1021.1 0.0
02/01:00am 15.4 9.8 10.0 70 2.8 SSE 30 41 16 22 1021.0 1021.0 0.0
02/12:30am 15.8 9.9 11.0 73 2.6 SSE 33 43 18 23 1020.9 1020.9 0.0
02/12:00am 15.9 10.4 11.7 76 2.3 SSE 32 41 17 22 1020.8 1020.8 0.0
 
Date/Time
CDT
Temp
°C
App
Temp
°C
Dew
Point
Rel
Hum
%
Delta-T
°C
Wind Press
QNH
hPa
Press
MSL
hPa
Rain
since 9 am
mm
Dir
 
Spd
km/h
Gust
km/h
Spd
kts
Gust
kts
01/11:30pm 15.7 10.4 13.0 84 1.5 SSE 33 43 18 23 1020.6 1020.6 0.0
01/11:00pm 15.6 11.1 13.8 89 1.0 SSE 30 37 16 20 1020.6 1020.6 0.0
01/10:30pm 16.1 11.2 13.6 85 1.4 SSE 32 43 17 23 1020.2 1020.2 0.0
01/10:00pm 16.4 11.1 14.1 86 1.3 S 35 46 19 25 1019.8 1019.8 0.0
01/09:30pm 17.3 12.8 14.8 85 1.4 S 32 41 17 22 1019.2 1019.2 0.0
01/09:00pm 17.6 13.9 15.0 85 1.5 S 28 35 15 19 1018.8 1018.8 0.0
01/08:30pm 18.5 15.9 15.9 85 1.5 SSW 24 30 13 16 1018.1 1018.1 0.0
01/08:00pm 18.8 16.1 15.5 81 1.9 SSW 24 35 13 19 1017.3 1017.3 0.0
01/07:30pm 19.3 17.1 16.0 81 2.0 SSW 22 28 12 15 1016.9 1016.9 0.0
01/07:00pm 19.3 16.8 16.2 82 1.9 SW 24 32 13 17 1016.7 1016.7 0.0
01/06:30pm 19.7 16.3 15.8 78 2.3 SW 28 33 15 18 1016.3 1016.3 0.0
01/06:00pm 20.3 17.2 15.7 75 2.7 SW 26 35 14 19 1016.0 1016.0 0.0
01/05:30pm 20.7 17.1 15.3 71 3.2 SSW 28 35 15 19 1015.8 1015.7 0.0
01/05:00pm 21.3 18.3 14.7 66 3.9 SSW 24 33 13 18 1015.5 1015.4 0.0
01/04:30pm 21.6 18.7 14.0 62 4.4 SSW 22 28 12 15 1015.3 1015.2 0.0
01/04:00pm 22.0 19.6 13.9 60 4.7 SSW 19 24 10 13 1014.8 1014.7 0.0
01/03:30pm 21.6 19.6 15.4 68 3.7 SW 20 26 11 14 1014.8 1014.7 0.0
01/03:00pm 23.1 21.0 14.7 59 5.0 WSW 19 22 10 12 1014.5 1014.4 0.0
01/02:30pm 23.4 20.4 13.6 54 5.7 WSW 22 28 12 15 1014.4 1014.3 0.0
01/02:00pm 24.7 19.8 12.6 47 7.0 WNW 30 39 16 21 1014.5 1014.4 0.0
01/01:30pm 26.6 20.8 9.5 34 9.4 NW 30 37 16 20 1014.5 1014.4 0.0
01/01:00pm 26.6 20.3 9.0 33 9.6 NNW 32 39 17 21 1014.4 1014.3 0.0
01/12:30pm 25.8 19.2 10.0 37 8.8 NNW 35 44 19 24 1014.7 1014.6 0.0
01/12:00pm 25.3 18.7 10.0 38 8.5 NNW 35 46 19 25 1014.9 1014.8 0.0
01/11:30am 25.5 17.5 7.6 32 9.5 NNW 39 48 21 26 1014.7 1014.6 0.0
01/11:00am 26.6 18.2 5.5 26 10.9 N 39 50 21 27 1014.7 1014.6 0.0
01/10:30am 26.3 18.0 4.1 24 11.1 N 37 48 20 26 1014.5 1014.4 0.0
01/10:00am 26.1 18.0 3.4 23 11.2 N 35 44 19 24 1014.5 1014.4 0.0
01/09:30am 25.4 19.0 3.4 24 10.8 N 26 32 14 17 1014.5 1014.4 0.0
01/09:00am 23.9 17.1 3.2 26 10.0 N 28 35 15 19 1014.3 1014.2 0.0
01/08:30am 23.6 16.9 3.5 27 9.8 N 28 33 15 18 1014.4 1014.3 0.0
01/08:00am 23.0 16.0 4.0 29 9.3 N 30 35 16 19 1014.5 1014.4 0.0
01/07:30am 22.7 16.1 4.2 30 9.1 N 28 32 15 17 1014.5 1014.4 0.0
01/07:00am 21.7 15.9 4.3 32 8.5 N 24 30 13 16 1014.6 1014.5 0.0
01/06:30am 21.8 15.8 3.5 30 8.8 N 24 28 13 15 1014.7 1014.6 0.0
01/06:00am 22.0 16.4 3.2 29 9.0 N 22 28 12 15 1014.5 1014.4 0.0
01/05:30am 23.0 16.6 3.0 27 9.6 NNE 26 32 14 17 1014.2 1014.1 0.0
01/05:00am 23.0 17.0 3.5 28 9.4 NNE 24 28 13 15 1014.6 1014.5 0.0
01/04:30am 23.3 17.4 3.8 28 9.5 NNE 24 28 13 15 1014.7 1014.6 0.0
01/04:00am 23.1 16.6 4.6 30 9.2 NNE 28 33 15 18 1015.0 1014.9 0.0
01/03:30am 22.3 16.3 5.3 33 8.5 NE 26 32 14 17 1015.3 1015.2 0.0
01/03:00am 22.2 16.3 5.6 34 8.3 NE 26 30 14 16 1015.7 1015.6 0.0
01/02:30am 21.9 15.7 6.2 36 7.9 NE 28 33 15 18 1016.2 1016.1 0.0
01/02:00am 20.7 14.6 6.6 40 7.1 NE 28 32 15 17 1016.5 1016.4 0.0
01/01:30am 22.2 16.1 4.7 32 8.6 ENE 26 30 14 16 1016.7 1016.6 0.0
01/01:00am 22.0 16.2 6.3 36 8.0 ENE 26 30 14 16 1017.0 1016.9 0.0
01/12:30am 21.4 16.3 7.6 41 7.1 ENE 24 26 13 14 1017.5 1017.4 0.0
01/12:00am 21.6 17.0 8.1 42 7.1 ENE 22 26 12 14 1017.9 1017.8 0.0
 
Date/Time
CDT
Temp
°C
App
Temp
°C
Dew
Point
Rel
Hum
%
Delta-T
°C
Wind Press
QNH
hPa
Press
MSL
hPa
Rain
since 9 am
mm
Dir
 
Spd
km/h
Gust
km/h
Spd
kts
Gust
kts
31/11:30pm 21.0 16.8 9.9 49 6.0 ENE 22 24 12 13 1018.1 1018.0 0.0
31/11:00pm 20.4 15.8 9.6 50 5.8 E 24 28 13 15 1018.1 1018.0 0.0
31/10:30pm 20.0 14.6 6.4 41 6.8 E 24 26 13 14 1018.5 1018.4 0.0
31/10:00pm 20.2 15.6 6.5 41 6.9 E 20 22 11 12 1018.8 1018.7 0.0
31/09:30pm 20.1 15.6 6.8 42 6.7 E 20 20 11 11 1018.7 1018.6 0.0
31/09:00pm 20.4 16.0 6.7 41 6.9 ESE 19 20 10 11 1018.5 1018.4 0.0
31/08:30pm 21.1 17.6 7.0 40 7.2 E 15 17 8 9 1018.6 1018.5 0.0
31/08:00pm 21.4 18.6 6.9 39 7.4 ENE 11 13 6 7 1018.6 1018.5 0.0
31/07:30pm 20.7 18.6 6.6 40 7.1 NE 7 9 4 5 1018.6 1018.5 0.0
31/07:00pm 23.6 21.6 7.3 35 8.5 N 7 9 4 5 1018.9 1018.8 0.0
31/06:30pm 26.0 23.4 7.6 31 9.8 N 11 13 6 7 1018.8 1018.7 0.0
31/06:00pm 26.1 24.1 8.6 33 9.5 N 9 13 5 7 1018.9 1018.8 0.0
31/05:30pm 26.8 24.6 9.2 33 9.6 NW 11 15 6 8 1019.2 1019.1 0.0
31/05:00pm 28.1 23.9 5.6 24 11.7 NW 17 20 9 11 1019.1 1019.0 0.0
31/04:30pm 28.8 25.1 6.2 24 11.9 NW 15 20 8 11 1019.0 1018.9 0.0
31/04:00pm 28.6 24.6 6.7 25 11.6 NW 17 24 9 13 1019.3 1019.2 0.0
31/03:30pm 28.9 24.3 5.7 23 12.1 NW 19 24 10 13 1019.6 1019.5 0.0
31/03:00pm 28.5 24.3 8.2 28 11.0 NW 20 26 11 14 1019.9 1019.8 0.0
31/02:30pm 29.0 23.5 5.8 23 12.1 NW 24 32 13 17 1020.2 1020.1 0.0
31/02:00pm 28.9 22.9 6.9 25 11.8 NW 28 33 15 18 1020.8 1020.7 0.0
31/01:30pm 29.0 23.4 7.0 25 11.7 NW 26 33 14 18 1021.1 1021.0 0.0
31/01:00pm 28.7 23.5 7.3 26 11.5 NW 24 28 13 15 1021.6 1021.5 0.0
31/12:30pm 28.3 23.9 9.1 30 10.6 NW 22 28 12 15 1022.1 1022.0 0.0
31/12:00pm 27.8 22.9 8.6 30 10.5 NW 24 30 13 16 1022.4 1022.3 0.0
31/11:30am 27.9 22.7 7.2 27 11.0 N 24 32 13 17 1022.7 1022.6 0.0
31/11:00am 26.5 21.6 7.0 29 10.3 NNE 22 32 12 17 1023.1 1023.0 0.0
31/10:30am 25.6 21.5 8.6 34 9.1 NNE 20 28 11 15 1023.5 1023.4 0.0
31/10:00am 23.5 18.5 9.5 41 7.6 NE 26 33 14 18 1023.3 1023.2 0.0
31/09:30am 22.1 17.0 10.6 48 6.3 NE 28 35 15 19 1023.0 1022.9 0.0
31/09:00am 19.7 14.9 11.7 60 4.4 ENE 28 37 15 20 1022.9 1022.8 0.0
31/08:30am 17.9 12.7 11.5 66 3.5 ENE 30 35 16 19 1022.8 1022.7 0.0
31/08:00am 16.7 12.1 11.0 69 3.1 ENE 26 32 14 17 1022.8 1022.7 0.0
31/07:30am 16.4 11.4 10.9 70 2.9 ENE 28 35 15 19 1022.5 1022.4 0.0
31/07:00am 16.2 11.6 10.9 71 2.8 ENE 26 32 14 17 1022.6 1022.5 0.0
31/06:30am 16.1 11.6 11.3 73 2.6 ENE 26 30 14 16 1022.4 1022.3 0.0
31/06:00am 16.3 11.7 11.2 72 2.7 ENE 26 30 14 16 1022.5 1022.4 0.0
31/05:30am 16.4 11.8 10.9 70 2.9 ENE 26 30 14 16 1022.4 1022.3 0.0
31/05:00am 16.2 11.6 10.9 71 2.8 ENE 26 30 14 16 1022.3 1022.2 0.0
31/04:30am 16.0 11.8 11.2 73 2.6 ENE 24 28 13 15 1022.7 1022.6 0.0
31/04:00am 16.4 12.3 11.6 73 2.6 ENE 24 30 13 16 1022.8 1022.7 0.0
31/03:30am 16.3 12.4 12.1 76 2.3 ENE 24 30 13 16 1022.9 1022.8 0.0
31/03:00am 15.8 12.6 13.1 84 1.5 ENE 22 26 12 14 1023.0 1022.9 0.0
31/02:30am 16.0 13.4 13.8 87 1.2 E 20 24 11 13 1023.3 1023.2 0.0
31/02:00am 15.9 13.4 13.4 85 1.4 E 19 22 10 12 1023.4 1023.3 0.0
31/01:30am 16.2 13.5 13.5 84 1.5 E 20 24 11 13 1023.3 1023.2 0.0
31/01:00am 16.7 13.0 13.8 83 1.6 E 26 30 14 16 1023.1 1023.0 0.0
31/12:30am 16.7 13.3 13.6 82 1.7 E 24 30 13 16 1023.4 1023.3 0.0
31/12:00am 17.3 13.6 13.8 80 2.0 E 26 30 14 16 1023.7 1023.6 0.0
 
Date/Time
CDT
Temp
°C
App
Temp
°C
Dew
Point
Rel
Hum
%
Delta-T
°C
Wind Press
QNH
hPa
Press
MSL
hPa
Rain
since 9 am
mm
Dir
 
Spd
km/h
Gust
km/h
Spd
kts
Gust
kts
30/11:30pm 17.4 13.8 14.1 81 1.9 E 26 30 14 16 1023.8 1023.7 0.0
30/11:00pm 17.4 14.0 13.7 79 2.1 ESE 24 30 13 16 1024.0 1023.9 0.0
30/10:30pm 16.8 14.1 13.5 81 1.9 ESE 20 24 11 13 1024.2 1024.1 0.0
30/10:00pm 16.0 12.7 11.0 72 2.7 ESE 19 22 10 12 1024.4 1024.3 0.0
30/09:30pm 16.8 13.0 9.7 63 3.7 ESE 20 24 11 13 1024.3 1024.2 0.0
30/09:00pm 16.8 13.4 9.0 60 4.0 ESE 17 19 9 10 1024.3 1024.2 0.0
30/08:30pm 17.6 14.0 8.5 55 4.7 ESE 17 19 9 10 1024.1 1024.0 0.0
30/08:00pm 17.6 14.1 7.4 51 5.1 ESE 15 15 8 8 1023.9 1023.8 0.0
30/07:30pm 20.1 16.3 7.5 44 6.4 SE 17 19 9 10 1023.6 1023.5 0.0
30/07:00pm 22.3 18.2 7.7 39 7.6 ESE 19 24 10 13 1023.4 1023.3 0.0
30/06:30pm 23.6 19.7 9.6 41 7.6 ESE 20 24 11 13 1023.2 1023.1 0.0
30/06:00pm 24.1 22.8 13.6 52 6.1 WSW 13 17 7 9 1023.2 1023.1 0.0
30/05:30pm 23.8 21.8 13.9 54 5.8 WSW 17 20 9 11 1023.1 1023.0 0.0
30/05:00pm 25.0 22.0 11.9 44 7.5 WSW 19 24 10 13 1023.0 1022.9 0.0
30/04:30pm 25.5 22.5 10.5 39 8.3 WSW 17 20 9 11 1022.9 1022.8 0.0
30/04:00pm 25.2 21.8 10.6 40 8.2 W 19 24 10 13 1023.0 1022.9 0.0
30/03:30pm 25.6 22.6 12.4 43 7.6 WSW 20 24 11 13 1023.1 1023.0 0.0
30/03:00pm 25.1 21.9 12.0 44 7.5 W 20 26 11 14 1023.3 1023.2 0.0
30/02:30pm 25.4 22.3 12.3 44 7.5 W 20 24 11 13 1023.5 1023.4 0.0
30/02:00pm 25.3 23.0 12.9 46 7.2 W 17 24 9 13 1023.7 1023.6 0.0
30/01:30pm 24.7 22.9 13.3 49 6.6 W 15 22 8 12 1024.0 1023.9 0.0
30/01:00pm 24.5 22.7 13.4 50 6.5 WNW 15 20 8 11 1024.3 1024.2 0.0
30/12:30pm 24.1 21.5 13.3 51 6.3 W 19 24 10 13 1024.6 1024.5 0.0
30/12:00pm 24.3 23.7 11.6 45 7.1 N 6 13 3 7 1024.8 1024.7 0.0

Other Formats:

Comma delimited format used in spreadsheet applications
http://www.bom.gov.au/fwo/IDS60801/IDS60801.95659.axf

JavaScript Object Notation format (JSON) in row-major order
http://www.bom.gov.au/fwo/IDS60801/IDS60801.95659.json